Time;durP1;ratioP1;P1;durP2;ratioP2;P2;SDS_P1;SDS_P2;PMS_P1;PMS_P2;Temp;Humidity;BMP_temperature;BMP_pressure;BME280_temperature;BME280_humidity;BME280_pressure;Samples;Min_cycle;Max_cycle;Signal;HPM_P1;HPM_P2
2023/06/14 00:00:46;;;;;;;1.10;1.00;;;;;;;15.31;100.00;97400.63;1695375;75;1908753;-72
2023/06/14 00:03:17;;;;;;;1.10;1.00;;;;;;;15.39;100.00;97405.56;1701157;75;752377;-73
2023/06/14 00:05:48;;;;;;;1.30;1.10;;;;;;;15.37;100.00;97400.59;1709383;75;669811;-72
2023/06/14 00:08:18;;;;;;;0.90;0.85;;;;;;;15.41;100.00;97394.78;1700732;75;736835;-72
2023/06/14 00:10:50;;;;;;;1.50;0.90;;;;;;;15.42;100.00;97388.75;1709903;75;672046;-71
2023/06/14 00:13:20;;;;;;;1.45;0.95;;;;;;;15.49;100.00;97395.69;1700930;75;744678;-72
2023/06/14 00:15:54;;;;;;;1.00;0.80;;;;;;;15.43;100.00;97392.25;1708580;75;752604;-74
2023/06/14 00:18:29;;;;;;;1.00;0.80;;;;;;;15.48;100.00;97392.19;1700965;75;737678;-72
2023/06/14 00:20:59;;;;;;;0.60;0.60;;;;;;;15.48;100.00;97388.69;1709895;75;672634;-71
2023/06/14 00:23:31;;;;;;;0.95;0.80;;;;;;;15.40;100.00;97391.28;1700821;75;744287;-75
2023/06/14 00:26:01;;;;;;;0.70;0.70;;;;;;;15.43;100.00;97386.75;1709181;75;668644;-74
2023/06/14 00:28:32;;;;;;;0.95;0.75;;;;;;;15.44;100.00;97388.22;1700024;75;746379;-72
2023/06/14 00:31:04;;;;;;;1.20;1.00;;;;;;;15.35;100.00;97383.81;1709761;75;670668;-73
2023/06/14 00:33:35;;;;;;;1.30;0.90;;;;;;;15.28;100.00;97381.63;1700326;75;744289;-71
2023/06/14 00:36:05;;;;;;;1.15;0.85;;;;;;;15.39;100.00;97378.00;1709023;75;675227;-71
2023/06/14 00:38:35;;;;;;;0.85;0.70;;;;;;;15.22;100.00;97365.09;1700485;75;750392;-74
2023/06/14 00:41:06;;;;;;;0.90;0.70;;;;;;;15.28;100.00;97376.09;1709234;75;680307;-70
2023/06/14 00:43:36;;;;;;;1.30;0.80;;;;;;;15.25;100.00;97375.13;1700524;75;746417;-71
2023/06/14 00:46:09;;;;;;;0.90;0.90;;;;;;;15.23;100.00;97380.41;1709137;75;675706;-75
2023/06/14 00:48:40;;;;;;;0.90;0.90;;;;;;;15.22;100.00;97380.91;1700519;75;744765;-71
2023/06/14 00:51:11;;;;;;;1.00;0.70;;;;;;;15.17;100.00;97371.41;1709441;75;672259;-72
2023/06/14 00:53:46;;;;;;;1.20;1.00;;;;;;;15.21;100.00;97377.41;1700041;75;762047;-74
2023/06/14 00:56:16;;;;;;;0.70;0.70;;;;;;;15.14;100.00;97383.47;1708065;75;678076;-73
2023/06/14 00:58:47;;;;;;;1.00;0.90;;;;;;;15.14;100.00;97386.22;1700411;75;752839;-74
2023/06/14 01:01:19;;;;;;;1.70;1.20;;;;;;;15.05;100.00;97381.03;1709107;75;688267;-73
2023/06/14 01:03:50;;;;;;;1.90;1.00;;;;;;;15.13;100.00;97373.72;1700357;75;778951;-74
2023/06/14 01:06:31;;;;;;;1.20;0.90;;;;;;;15.18;100.00;97383.94;1709484;75;674871;-70
2023/06/14 01:09:13;;;;;;;1.55;0.70;;;;;;;15.19;100.00;97379.91;1700899;75;753648;-74
2023/06/14 01:11:52;;;;;;;1.30;0.80;;;;;;;15.16;100.00;97386.47;1686706;75;1820835;-73
2023/06/14 01:14:23;;;;;;;1.00;0.80;;;;;;;15.12;100.00;97374.97;1708470;75;672463;-72
2023/06/14 01:16:57;;;;;;;1.40;1.10;;;;;;;15.07;100.00;97378.50;1701642;75;672444;-72
2023/06/14 01:19:28;;;;;;;1.20;0.90;;;;;;;15.08;100.00;97377.25;1708586;75;744110;-75
2023/06/14 01:21:59;;;;;;;1.50;1.20;;;;;;;15.03;100.00;97380.78;1701529;75;677267;-71
2023/06/14 01:24:32;;;;;;;2.80;2.00;;;;;;;14.58;100.00;97370.81;1709185;75;677731;-74
2023/06/14 01:27:03;;;;;;;3.90;3.00;;;;;;;14.24;100.00;97370.97;1701078;75;751458;-72
2023/06/14 01:29:36;;;;;;;3.10;2.80;;;;;;;14.43;100.00;97370.38;1708767;75;672367;-72
2023/06/14 01:32:07;;;;;;;2.60;2.10;;;;;;;14.80;100.00;97366.44;1697395;75;966323;-71
2023/06/14 01:34:37;;;;;;;1.70;1.40;;;;;;;14.84;100.00;97351.13;1709054;75;705839;-72
2023/06/14 01:37:08;;;;;;;2.30;1.50;;;;;;;14.86;100.00;97353.34;1698262;75;918590;-73
2023/06/14 01:39:42;;;;;;;1.65;1.25;;;;;;;14.78;100.00;97344.88;1709680;75;680606;-73
2023/06/14 01:42:13;;;;;;;1.50;1.40;;;;;;;14.89;100.00;97350.34;1700989;75;734802;-72
2023/06/14 01:44:45;;;;;;;1.10;1.00;;;;;;;14.79;100.00;97351.16;1693579;75;1822628;-75
2023/06/14 01:47:16;;;;;;;1.60;1.20;;;;;;;14.78;100.00;97350.41;1699713;75;753554;-73
2023/06/14 01:49:49;;;;;;;1.40;1.30;;;;;;;14.74;100.00;97347.16;1709300;75;673013;-71
2023/06/14 01:52:20;;;;;;;1.10;1.00;;;;;;;14.61;100.00;97347.75;1695394;75;975646;-72
2023/06/14 01:54:54;;;;;;;0.80;0.80;;;;;;;14.65;100.00;97350.25;1708503;75;700463;-73
2023/06/14 01:57:26;;;;;;;1.20;1.10;;;;;;;14.67;100.00;97340.22;1660900;75;3991925;-73
2023/06/14 01:59:56;;;;;;;1.45;1.00;;;;;;;14.59;100.00;97344.03;1709609;75;681727;-76
2023/06/14 02:02:26;;;;;;;1.40;1.30;;;;;;;14.59;100.00;97353.03;1700693;75;754125;-72
2023/06/14 02:04:57;;;;;;;2.15;1.20;;;;;;;14.53;100.00;97346.03;1709464;75;674115;-73
2023/06/14 02:07:27;;;;;;;5.10;3.55;;;;;;;13.83;100.00;97340.63;1701096;75;750719;-72
2023/06/14 02:10:00;;;;;;;5.50;4.20;;;;;;;13.65;100.00;97344.66;1710785;75;674140;-72
2023/06/14 02:12:30;;;;;;;6.90;3.70;;;;;;;13.54;100.00;97341.91;1700529;75;770232;-74
2023/06/14 02:15:00;;;;;;;4.40;3.10;;;;;;;13.75;100.00;97348.63;1709796;75;672273;-72
2023/06/14 02:17:30;;;;;;;2.90;2.60;;;;;;;14.18;100.00;97355.72;1701764;75;744600;-72
2023/06/14 02:20:01;;;;;;;2.60;2.00;;;;;;;14.26;100.00;97349.19;1706970;75;963920;-71
2023/06/14 02:22:31;;;;;;;2.55;1.80;;;;;;;14.34;100.00;97351.41;1701387;75;739844;-73
2023/06/14 02:25:04;;;;;;;1.60;1.40;;;;;;;14.41;100.00;97346.09;1708968;75;670951;-70
2023/06/14 02:27:34;;;;;;;1.90;1.50;;;;;;;14.51;100.00;97337.53;1700449;75;751287;-72
2023/06/14 02:30:05;;;;;;;1.40;1.30;;;;;;;14.45;100.00;97341.06;1710180;75;671987;-70
2023/06/14 02:32:36;;;;;;;1.05;0.95;;;;;;;14.44;100.00;97344.34;1701563;75;747109;-74
2023/06/14 02:35:08;;;;;;;1.90;1.15;;;;;;;14.45;100.00;97343.81;1709731;75;670130;-71
2023/06/14 02:37:38;;;;;;;1.10;1.00;;;;;;;14.46;100.00;97342.56;1701357;75;747304;-74
2023/06/14 02:40:13;;;;;;;1.10;0.90;;;;;;;14.44;100.00;97342.31;1709766;75;678840;-73
2023/06/14 02:42:43;;;;;;;1.20;1.00;;;;;;;14.37;100.00;97337.34;1701689;75;744818;-73
2023/06/14 02:45:14;;;;;;;1.20;1.10;;;;;;;14.37;100.00;97336.63;1710636;75;672274;-75
2023/06/14 02:47:45;;;;;;;1.20;1.00;;;;;;;14.29;100.00;97339.16;1702431;75;749425;-75
2023/06/14 02:50:15;;;;;;;1.20;1.10;;;;;;;14.32;100.00;97349.16;1686355;75;2818391;-73
2023/06/14 02:52:47;;;;;;;1.30;1.00;;;;;;;14.27;100.00;97347.19;1702794;75;744749;-75
2023/06/14 02:55:20;;;;;;;1.30;1.20;;;;;;;14.10;100.00;97344.50;1709959;75;675618;-72
2023/06/14 02:57:50;;;;;;;2.20;2.00;;;;;;;13.72;100.00;97351.63;1700771;75;743499;-73
2023/06/14 03:00:21;;;;;;;3.20;2.70;;;;;;;13.91;100.00;97354.59;1710498;75;681099;-74
2023/06/14 03:02:52;;;;;;;2.60;2.10;;;;;;;14.15;100.00;97338.22;1685786;75;1995226;-72
2023/06/14 03:05:23;;;;;;;1.70;1.60;;;;;;;14.07;100.00;97348.28;1709171;75;672163;-75
2023/06/14 03:07:54;;;;;;;1.55;1.30;;;;;;;14.14;100.00;97344.22;1700693;75;744605;-73
2023/06/14 03:10:28;;;;;;;1.30;1.10;;;;;;;14.22;100.00;97343.19;1709376;75;735870;-74
2023/06/14 03:12:59;;;;;;;1.50;1.00;;;;;;;14.11;100.00;97340.47;1701692;75;729560;-73
2023/06/14 03:15:29;;;;;;;1.40;1.30;;;;;;;14.14;100.00;97345.00;1705604;75;988855;-71
2023/06/14 03:17:59;;;;;;;1.40;1.20;;;;;;;14.17;100.00;97349.47;1701078;75;737233;-71
2023/06/14 03:20:32;;;;;;;1.60;1.25;;;;;;;14.03;100.00;97345.03;1709856;75;673617;-72
2023/06/14 03:23:03;;;;;;;1.90;1.60;;;;;;;14.06;100.00;97339.25;1701392;75;752484;-71
2023/06/14 03:25:38;;;;;;;1.60;1.50;;;;;;;13.96;100.00;97332.53;1708904;75;674769;-72
2023/06/14 03:28:08;;;;;;;1.90;1.50;;;;;;;13.99;100.00;97331.53;1700932;75;743041;-72
2023/06/14 03:30:38;;;;;;;1.40;1.30;;;;;;;14.13;100.00;97340.00;1683931;75;2826320;-71
2023/06/14 03:33:09;;;;;;;1.35;1.25;;;;;;;14.16;100.00;97336.94;1701397;75;751353;-73
2023/06/14 03:35:39;;;;;;;1.30;1.20;;;;;;;14.16;100.00;97339.72;1709324;75;670701;-73
2023/06/14 03:38:09;;;;;;;1.50;1.20;;;;;;;14.18;100.00;97345.47;1700429;75;727443;-72
2023/06/14 03:40:42;;;;;;;1.40;1.30;;;;;;;14.02;100.00;97344.28;1709126;75;706699;-73
2023/06/14 03:43:12;;;;;;;1.50;1.35;;;;;;;14.03;100.00;97350.53;1701308;75;737228;-72
2023/06/14 03:45:42;;;;;;;3.65;2.20;;;;;;;13.78;100.00;97357.84;1710069;75;673259;-72
2023/06/14 03:48:13;;;;;;;5.30;3.70;;;;;;;13.31;100.00;97350.22;1703788;75;740654;-70
2023/06/14 03:50:44;;;;;;;4.10;3.40;;;;;;;13.41;100.00;97348.69;1712508;75;679631;-75
2023/06/14 03:53:14;;;;;;;3.40;3.10;;;;;;;13.59;100.00;97357.69;1705024;75;754274;-70
2023/06/14 03:55:48;;;;;;;3.15;2.30;;;;;;;13.92;100.00;97361.56;1675624;75;3795556;-72
2023/06/14 03:58:18;;;;;;;2.50;2.10;;;;;;;14.10;100.00;97365.78;1702375;75;758484;-73
2023/06/14 04:00:49;;;;;;;1.75;1.60;;;;;;;14.19;100.00;97362.72;1712238;75;672398;-75
2023/06/14 04:03:19;;;;;;;1.60;1.50;;;;;;;14.18;100.00;97367.47;1700732;75;758836;-72
2023/06/14 04:05:50;;;;;;;2.50;1.90;;;;;;;14.10;100.00;97372.03;1709944;75;674323;-74
2023/06/14 04:08:21;;;;;;;2.25;1.90;;;;;;;14.11;100.00;97370.03;1700666;75;827837;-73
2023/06/14 04:10:54;;;;;;;1.90;1.70;;;;;;;14.17;100.00;97368.00;1709807;75;677202;-72
2023/06/14 04:13:25;;;;;;;4.90;2.60;;;;;;;14.11;100.00;97365.25;1698520;75;890212;-70
2023/06/14 04:15:56;;;;;;;3.30;2.80;;;;;;;14.17;100.00;97368.00;1709400;75;673072;-71
2023/06/14 04:18:26;;;;;;;6.50;4.90;;;;;;;14.21;100.00;97371.97;1700516;75;743224;-72
2023/06/14 04:20:57;;;;;;;5.10;4.50;;;;;;;14.35;100.00;97370.16;1709510;75;699818;-70
2023/06/14 04:23:28;;;;;;;3.90;3.50;;;;;;;14.36;100.00;97368.16;1698451;75;919478;-72
2023/06/14 04:26:02;;;;;;;4.90;3.95;;;;;;;14.34;100.00;97374.19;1708695;75;685743;-72
2023/06/14 04:28:32;;;;;;;4.05;3.60;;;;;;;14.51;100.00;97371.34;1701651;75;745461;-75
2023/06/14 04:31:02;;;;;;;3.15;2.70;;;;;;;14.48;100.00;97375.13;1707726;75;848890;-72
2023/06/14 04:33:32;;;;;;;3.60;2.75;;;;;;;14.53;100.00;97377.09;1701299;75;746862;-75
2023/06/14 04:36:03;;;;;;;2.95;2.40;;;;;;;14.56;100.00;97380.84;1709123;75;679080;-74
2023/06/14 04:38:34;;;;;;;2.65;2.15;;;;;;;14.56;100.00;97392.63;1701423;75;753628;-72
2023/06/14 04:41:11;;;;;;;4.05;2.00;;;;;;;14.65;100.00;97386.81;1709315;75;670685;-71
2023/06/14 04:43:42;;;;;;;1.90;1.60;;;;;;;14.75;100.00;97383.75;1701469;75;738436;-73
2023/06/14 04:46:14;;;;;;;1.60;1.40;;;;;;;14.76;100.00;97396.25;1709014;75;746544;-74
2023/06/14 04:48:45;;;;;;;2.75;1.15;;;;;;;14.85;100.00;97387.69;1700160;75;769046;-73
2023/06/14 04:51:16;;;;;;;1.80;1.35;;;;;;;14.77;100.00;97384.75;1708784;75;719473;-73
2023/06/14 04:53:46;;;;;;;1.90;1.70;;;;;;;14.77;100.00;97393.00;1700586;75;736482;-75
2023/06/14 04:56:19;;;;;;;1.60;1.30;;;;;;;14.81;100.00;97390.72;1709890;75;681071;-73
2023/06/14 04:58:49;;;;;;;1.50;1.20;;;;;;;14.85;100.00;97398.72;1700843;75;740857;-71
2023/06/14 05:01:19;;;;;;;1.45;1.20;;;;;;;14.94;100.00;97403.91;1708685;75;671669;-76
2023/06/14 05:03:51;;;;;;;1.45;1.20;;;;;;;15.05;100.00;97401.06;1700161;75;752648;-74
2023/06/14 05:06:21;;;;;;;1.65;1.20;;;;;;;15.10;100.00;97407.81;1710106;75;673927;-72
2023/06/14 05:08:51;;;;;;;1.45;1.00;;;;;;;15.11;100.00;97404.53;1701326;75;742938;-74
2023/06/14 05:11:24;;;;;;;1.30;1.20;;;;;;;15.05;100.00;97411.34;1709534;75;678809;-72
2023/06/14 05:13:54;;;;;;;1.65;1.30;;;;;;;15.04;100.00;97412.63;1699587;75;751546;-74
2023/06/14 05:16:25;;;;;;;3.40;1.50;;;;;;;15.09;100.00;97411.84;1709253;75;678104;-73
2023/06/14 05:18:55;;;;;;;1.20;1.10;;;;;;;15.13;100.00;97409.56;1700940;75;771916;-72
2023/06/14 05:21:25;;;;;;;1.60;1.20;;;;;;;15.18;100.00;97403.25;1708769;75;677028;-73
2023/06/14 05:23:55;;;;;;;2.55;1.45;;;;;;;15.20;100.00;97414.53;1700312;75;740205;-75
2023/06/14 05:26:29;;;;;;;1.35;1.15;;;;;;;15.23;100.00;97410.00;1706472;75;937857;-75
2023/06/14 05:29:01;;;;;;;1.60;1.20;;;;;;;15.27;100.00;97408.44;1700252;75;755828;-74
2023/06/14 05:31:34;;;;;;;2.50;1.30;;;;;;;15.33;100.00;97420.16;1709085;75;673308;-73
2023/06/14 05:34:04;;;;;;;1.60;1.30;;;;;;;15.23;100.00;97421.75;1698437;75;876153;-76
2023/06/14 05:36:36;;;;;;;1.45;1.30;;;;;;;15.33;100.00;97419.44;1707229;75;903655;-71
2023/06/14 05:39:10;;;;;;;1.30;0.95;;;;;;;15.30;100.00;97420.47;1701034;75;751782;-73
2023/06/14 05:41:42;;;;;;;1.30;1.10;;;;;;;15.34;100.00;97420.91;1709758;75;727821;-73
2023/06/14 05:44:13;;;;;;;1.65;1.40;;;;;;;15.16;100.00;97425.06;1701224;75;745406;-75
2023/06/14 05:46:43;;;;;;;1.40;1.30;;;;;;;15.30;100.00;97425.97;1709935;75;673499;-74
2023/06/14 05:49:14;;;;;;;1.40;1.10;;;;;;;15.38;100.00;97426.16;1701096;75;736107;-72
2023/06/14 05:51:46;;;;;;;1.30;1.00;;;;;;;15.43;100.00;97425.38;1710402;75;687792;-75
2023/06/14 05:54:16;;;;;;;1.50;1.20;;;;;;;15.19;100.00;97432.31;1700213;75;749140;-75
2023/06/14 05:56:49;;;;;;;1.40;1.10;;;;;;;15.09;100.00;97439.41;1708702;75;815252;-72
2023/06/14 05:59:19;;;;;;;1.55;1.30;;;;;;;15.26;100.00;97442.03;1700569;75;733913;-73
2023/06/14 06:01:49;;;;;;;1.55;1.40;;;;;;;15.35;100.00;97433.44;1709170;75;674086;-73
2023/06/14 06:04:19;;;;;;;1.15;1.05;;;;;;;15.33;100.00;97436.72;1700818;75;748887;-72
2023/06/14 06:06:50;;;;;;;0.95;0.85;;;;;;;15.30;100.00;97443.25;1709941;75;667144;-70
2023/06/14 06:09:20;;;;;;;1.85;1.40;;;;;;;15.22;100.00;97445.06;1701534;75;746283;-73
2023/06/14 06:11:55;;;;;;;1.45;1.20;;;;;;;15.21;100.00;97442.84;1710040;75;672486;-74
2023/06/14 06:14:25;;;;;;;1.80;1.50;;;;;;;15.29;100.00;97444.50;1688375;75;1695560;-73
2023/06/14 06:16:55;;;;;;;1.40;1.20;;;;;;;15.32;100.00;97449.03;1710657;75;673718;-73
2023/06/14 06:19:26;;;;;;;1.20;1.10;;;;;;;15.29;100.00;97452.78;1700924;75;745610;-74
2023/06/14 06:21:56;;;;;;;2.80;2.30;;;;;;;15.00;100.00;97461.75;1708449;75;830917;-71
2023/06/14 06:24:26;;;;;;;4.80;3.25;;;;;;;14.70;100.00;97470.69;1700767;75;747056;-73
2023/06/14 06:26:59;;;;;;;5.75;3.85;;;;;;;14.79;100.00;97473.16;1709894;75;698093;-72
2023/06/14 06:29:29;;;;;;;3.75;2.60;;;;;;;14.98;100.00;97478.06;1699544;75;856926;-72
2023/06/14 06:31:59;;;;;;;3.15;2.15;;;;;;;14.95;100.00;97462.56;1640981;75;6561789;-73
2023/06/14 06:34:29;;;;;;;2.45;1.90;;;;;;;14.96;100.00;97473.06;1698858;75;839992;-74
2023/06/14 06:36:59;;;;;;;1.80;1.50;;;;;;;15.09;100.00;97467.72;1710294;75;681706;-74
2023/06/14 06:39:29;;;;;;;2.05;1.70;;;;;;;15.03;100.00;97475.28;1700875;75;748492;-72
2023/06/14 06:42:02;;;;;;;2.00;1.65;;;;;;;14.99;100.00;97482.34;1708804;75;813653;-71
2023/06/14 06:44:32;;;;;;;2.20;2.00;;;;;;;14.94;100.00;97475.59;1698581;75;813004;-75
2023/06/14 06:47:03;;;;;;;1.75;1.55;;;;;;;15.01;100.00;97485.31;1697702;75;1736587;-78
2023/06/14 06:49:33;;;;;;;1.60;1.20;;;;;;;14.93;100.00;97489.88;1699921;75;752688;-73
2023/06/14 06:52:04;;;;;;;2.10;1.50;;;;;;;14.86;100.00;97485.63;1697672;75;1717167;-72
2023/06/14 06:54:35;;;;;;;3.00;1.95;;;;;;;14.80;100.00;97485.69;1701777;75;754719;-73
2023/06/14 06:57:08;;;;;;;3.80;1.60;;;;;;;14.87;100.00;97496.16;1712471;75;678540;-73
2023/06/14 06:59:39;;;;;;;2.15;1.55;;;;;;;14.93;100.00;97496.13;1703039;75;745997;-71
2023/06/14 07:02:09;;;;;;;2.10;1.30;;;;;;;14.89;100.00;97495.66;1709228;75;776575;-71
2023/06/14 07:04:40;;;;;;;1.40;1.30;;;;;;;14.89;100.00;97493.66;1698080;75;970899;-74
2023/06/14 07:07:10;;;;;;;3.10;1.45;;;;;;;14.80;100.00;97491.19;1710213;75;674726;-71
2023/06/14 07:09:41;;;;;;;1.50;1.30;;;;;;;14.95;100.00;97496.38;1701471;75;739830;-71
2023/06/14 07:12:14;;;;;;;1.75;1.50;;;;;;;14.84;100.00;97510.97;1708766;75;810308;-74
2023/06/14 07:14:44;;;;;;;1.75;1.30;;;;;;;14.78;100.00;97507.47;1699897;75;756620;-75
2023/06/14 07:17:15;;;;;;;1.95;1.50;;;;;;;14.71;100.00;97508.00;1709814;75;706869;-72
2023/06/14 07:19:45;;;;;;;2.15;1.60;;;;;;;14.66;100.00;97519.81;1701368;75;748875;-70
2023/06/14 07:22:15;;;;;;;1.60;1.30;;;;;;;14.70;100.00;97525.81;1709778;75;673516;-71
2023/06/14 07:24:46;;;;;;;1.50;1.40;;;;;;;14.70;100.00;97520.28;1697072;75;898858;-71
2023/06/14 07:27:18;;;;;;;1.80;1.50;;;;;;;14.69;100.00;97530.53;1709617;75;674168;-73
2023/06/14 07:29:49;;;;;;;2.20;1.60;;;;;;;14.67;100.00;97527.56;1700539;75;733681;-74
2023/06/14 07:32:19;;;;;;;2.10;1.60;;;;;;;14.75;100.00;97538.81;1707256;75;918612;-71
2023/06/14 07:34:50;;;;;;;1.80;1.30;;;;;;;14.74;100.00;97533.78;1700486;75;752854;-71
2023/06/14 07:37:20;;;;;;;1.05;0.95;;;;;;;14.76;100.00;97539.56;1709885;75;729608;-71
2023/06/14 07:39:50;;;;;;;1.30;1.20;;;;;;;14.71;100.00;97538.31;1701623;75;745973;-73
2023/06/14 07:42:23;;;;;;;1.30;1.00;;;;;;;14.80;100.00;97542.81;1710287;75;681555;-71
2023/06/14 07:44:53;;;;;;;1.95;1.50;;;;;;;14.75;100.00;97549.09;1700309;75;747658;-74
2023/06/14 07:47:24;;;;;;;1.70;1.30;;;;;;;14.81;100.00;97549.81;1710092;75;669999;-74
2023/06/14 07:49:54;;;;;;;1.45;1.20;;;;;;;14.73;100.00;97555.09;1701415;75;750954;-71
2023/06/14 07:52:24;;;;;;;1.30;1.20;;;;;;;14.76;100.00;97556.09;1709017;75;687791;-71
2023/06/14 07:54:55;;;;;;;2.75;2.25;;;;;;;14.39;100.00;97562.69;1699969;75;738946;-74
2023/06/14 07:57:28;;;;;;;3.20;1.90;;;;;;;14.67;100.00;97548.84;1712150;75;677365;-72
2023/06/14 07:59:58;;;;;;;1.70;1.35;;;;;;;14.83;100.00;97555.56;1704395;75;744707;-70
2023/06/14 08:02:30;;;;;;;2.05;1.45;;;;;;;14.88;100.00;97554.78;1713860;75;681418;-71
2023/06/14 08:05:01;;;;;;;2.35;1.50;;;;;;;14.88;100.00;97558.28;1702826;75;824113;-76
2023/06/14 08:07:31;;;;;;;1.70;1.40;;;;;;;14.87;100.00;97561.56;1713660;75;676140;-73
2023/06/14 08:10:01;;;;;;;2.80;2.15;;;;;;;14.55;100.00;97574.94;1679196;75;2679006;-76
2023/06/14 08:12:34;;;;;;;2.30;2.00;;;;;;;14.61;100.00;97583.94;1711364;75;697123;-70
2023/06/14 08:15:05;;;;;;;3.00;2.65;;;;;;;14.48;100.00;97593.47;1700914;75;727418;-74
2023/06/14 08:17:35;;;;;;;3.10;2.40;;;;;;;14.29;100.00;97598.00;1709855;75;673778;-72
2023/06/14 08:20:05;;;;;;;3.75;2.40;;;;;;;14.22;100.00;97601.25;1701079;75;751233;-71
2023/06/14 08:22:37;;;;;;;5.40;3.00;;;;;;;14.34;100.00;97608.25;1709291;75;677878;-73
2023/06/14 08:25:08;;;;;;;3.55;2.60;;;;;;;14.41;100.00;97602.22;1700714;75;749317;-73
2023/06/14 08:27:41;;;;;;;2.70;2.40;;;;;;;14.40;100.00;97605.47;1709639;75;693555;-73
2023/06/14 08:30:13;;;;;;;3.10;2.10;;;;;;;14.55;100.00;97602.47;1700976;75;749102;-72
2023/06/14 08:32:44;;;;;;;1.90;1.70;;;;;;;14.55;100.00;97608.75;1709492;75;710659;-72
2023/06/14 08:35:14;;;;;;;2.30;2.00;;;;;;;14.46;100.00;97606.22;1697126;75;932422;-72
2023/06/14 08:37:44;;;;;;;2.35;1.90;;;;;;;14.42;100.00;97609.22;1709617;75;672334;-74
2023/06/14 08:40:23;;;;;;;2.30;1.70;;;;;;;14.65;100.00;97620.25;1698416;75;928251;-73
2023/06/14 08:42:59;;;;;;;4.60;3.20;;;;;;;14.31;100.00;97625.78;1700022;75;833048;-71
2023/06/14 08:45:29;;;;;;;5.25;3.20;;;;;;;14.29;100.00;97628.28;1708979;75;678453;-70
2023/06/14 08:48:01;;;;;;;5.50;4.20;;;;;;;13.92;100.00;97626.50;1702013;75;679761;-74
2023/06/14 08:50:32;;;;;;;7.00;4.20;;;;;;;13.80;100.00;97636.00;1709747;75;675236;-72
2023/06/14 08:53:04;;;;;;;7.20;4.60;;;;;;;13.41;100.00;97631.16;1701707;75;674975;-72
2023/06/14 08:55:38;;;;;;;5.10;3.90;;;;;;;13.44;100.00;97632.91;1709666;75;675023;-73
2023/06/14 08:58:14;;;;;;;10.35;4.50;;;;;;;13.48;100.00;97633.44;1701899;75;680264;-70
2023/06/14 09:00:44;;;;;;;9.95;4.70;;;;;;;13.48;100.00;97625.19;1709732;75;681607;-71
2023/06/14 09:03:15;;;;;;;4.10;3.70;;;;;;;13.82;100.00;97628.00;1687919;75;1821250;-71
2023/06/14 09:05:46;;;;;;;3.70;2.90;;;;;;;13.93;100.00;97627.28;1695799;75;1849828;-74
2023/06/14 09:08:18;;;;;;;4.55;3.40;;;;;;;13.73;100.00;97631.72;1700829;75;741395;-74
2023/06/14 09:10:49;;;;;;;5.15;3.80;;;;;;;13.54;100.00;97641.69;1710054;75;673293;-72
2023/06/14 09:13:22;;;;;;;6.90;4.05;;;;;;;13.54;100.00;97642.47;1700374;75;761227;-73
2023/06/14 09:15:53;;;;;;;5.85;4.45;;;;;;;13.38;100.00;97649.41;1709935;75;672859;-74
2023/06/14 09:18:36;;;;;;;6.40;3.35;;;;;;;14.12;100.00;97652.28;1698916;75;861404;-71
2023/06/14 09:21:09;;;;;;;3.90;2.60;;;;;;;14.35;100.00;97644.78;1701396;75;769516;-75
2023/06/14 09:23:41;;;;;;;6.90;4.80;;;;;;;14.08;100.00;97647.03;1710874;75;672223;-74
2023/06/14 09:26:12;;;;;;;5.20;4.70;;;;;;;14.05;100.00;97648.06;1701957;75;676547;-73
2023/06/14 09:28:49;;;;;;;4.60;4.10;;;;;;;13.74;100.00;97646.25;1710016;75;677492;-71
2023/06/14 09:31:22;;;;;;;5.50;4.40;;;;;;;13.96;100.00;97643.53;1701748;75;677049;-71
2023/06/14 09:33:55;;;;;;;5.90;4.30;;;;;;;13.91;100.00;97643.53;1705470;75;983619;-72
2023/06/14 09:36:27;;;;;;;5.25;4.05;;;;;;;14.48;100.00;97651.31;1699704;75;796870;-72
2023/06/14 09:38:59;;;;;;;4.80;4.10;;;;;;;14.43;100.00;97641.03;1696966;75;1752646;-74
2023/06/14 09:41:35;;;;;;;5.50;4.15;;;;;;;14.11;100.00;97632.28;1701285;75;738494;-72
2023/06/14 09:44:11;;;;;;;4.85;4.00;;;;;;;14.66;100.00;97630.75;1701120;75;673572;-70
2023/06/14 09:46:41;;;;;;;3.90;3.20;;;;;;;14.90;100.00;97626.69;1709775;75;669165;-72
2023/06/14 09:49:12;;;;;;;3.20;2.70;;;;;;;15.03;100.00;97628.91;1701631;75;676652;-72
2023/06/14 09:51:48;;;;;;;4.10;3.30;;;;;;;14.63;100.00;97626.25;1710257;75;673591;-71
2023/06/14 09:54:24;;;;;;;9.85;5.40;;;;;;;13.99;100.00;97637.03;1700304;75;739227;-71
2023/06/14 09:56:55;;;;;;;6.50;4.20;;;;;;;14.63;100.00;97629.00;1710147;75;687231;-71
2023/06/14 09:59:32;;;;;;;10.50;6.10;;;;;;;14.38;100.00;97639.03;1701407;75;674208;-75
2023/06/14 10:02:03;;;;;;;5.60;4.60;;;;;;;14.59;100.00;97644.31;1710186;75;667603;-72
2023/06/14 10:04:37;;;;;;;6.00;4.65;;;;;;;14.83;100.00;97646.50;1700521;75;754610;-74
2023/06/14 10:07:08;;;;;;;5.50;4.60;;;;;;;15.06;100.00;97636.19;1709881;75;674914;-73
2023/06/14 10:09:41;;;;;;;4.00;3.30;;;;;;;15.43;100.00;97643.28;1697474;75;958104;-71
2023/06/14 10:12:18;;;;;;;2.70;2.50;;;;;;;15.68;100.00;97649.66;1709917;75;693463;-72
2023/06/14 10:14:53;;;;;;;4.40;1.95;;;;;;;15.88;100.00;97645.84;1700295;75;745072;-72
2023/06/14 10:17:34;;;;;;;4.00;2.10;;;;;;;16.16;100.00;97648.38;1709173;75;677978;-72
2023/06/14 10:20:22;;;;;;;2.75;2.15;;;;;;;15.82;100.00;97640.31;1698382;75;800635;-73
2023/06/14 10:23:00;;;;;;;5.10;3.90;;;;;;;16.06;100.00;97647.19;1701073;75;704252;-72
2023/06/14 10:25:35;;;;;;;3.25;2.85;;;;;;;16.42;100.00;97639.63;1709662;75;673510;-72
2023/06/14 10:28:22;;;;;;;6.60;3.55;;;;;;;15.31;100.00;97629.53;1700412;75;856650;-71
2023/06/14 10:31:13;;;;;;;5.00;3.80;;;;;;;15.77;100.00;97635.59;1701955;75;678194;-72
2023/06/14 10:33:52;;;;;;;6.80;4.30;;;;;;;15.72;100.00;97639.88;1702231;75;682285;-71
2023/06/14 10:36:32;;;;;;;6.40;4.10;;;;;;;15.73;100.00;97637.91;1710244;75;696736;-71
2023/06/14 10:39:08;;;;;;;4.70;4.10;;;;;;;15.22;100.00;97632.59;1701635;75;681595;-72
2023/06/14 10:41:41;;;;;;;5.00;3.30;;;;;;;16.28;100.00;97641.50;1709922;75;674936;-74
2023/06/14 10:44:43;;;;;;;3.55;2.75;;;;;;;16.78;100.00;97637.53;1700891;75;736791;-73
2023/06/14 10:47:34;;;;;;;5.00;3.40;;;;;;;17.22;100.00;97635.56;1699484;75;783487;-73
2023/06/14 10:50:10;;;;;;;4.65;2.75;;;;;;;17.82;100.00;97625.47;1702298;75;676153;-71
2023/06/14 10:52:43;;;;;;;3.80;2.60;;;;;;;18.11;100.00;97623.78;1709897;75;687346;-73
2023/06/14 10:55:18;;;;;;;2.50;2.20;;;;;;;18.52;100.00;97614.28;1700479;75;753455;-73
2023/06/14 10:57:51;;;;;;;3.45;2.70;;;;;;;18.78;95.39;97610.06;1708404;75;679175;-73
2023/06/14 11:00:26;;;;;;;3.15;2.40;;;;;;;19.31;84.76;97607.25;1709987;75;679568;-75
2023/06/14 11:03:50;;;;;;;3.00;2.30;;;;;;;18.09;79.68;97618.03;1702384;75;671919;-73
2023/06/14 11:06:27;;;;;;;3.15;2.20;;;;;;;18.43;87.48;97617.47;1700656;75;737176;-73
2023/06/14 11:09:32;;;;;;;3.00;1.95;;;;;;;19.15;87.85;97600.78;1702241;75;682217;-72
2023/06/14 11:12:04;;;;;;;4.30;2.20;;;;;;;19.22;83.39;97607.69;1700856;75;677067;-74
2023/06/14 11:14:35;;;;;;;4.80;2.20;;;;;;;19.10;91.16;97607.94;1710904;75;674921;-74
2023/06/14 11:17:05;;;;;;;3.40;2.20;;;;;;;19.24;89.72;97596.78;1699679;75;972241;-72
2023/06/14 11:19:39;;;;;;;3.45;2.45;;;;;;;18.17;78.26;97605.03;1711713;75;670207;-72
2023/06/14 11:22:12;;;;;;;4.80;2.70;;;;;;;17.96;80.49;97607.63;1700041;75;948738;-75
2023/06/14 11:24:42;;;;;;;5.30;2.80;;;;;;;18.11;84.05;97607.16;1706747;75;985811;-75
2023/06/14 11:27:12;;;;;;;4.70;2.45;;;;;;;19.10;84.05;97599.59;1702393;75;680372;-75
2023/06/14 11:29:51;;;;;;;3.20;2.10;;;;;;;19.22;74.00;97600.13;1707793;75;922248;-72
2023/06/14 11:32:21;;;;;;;;;;;;;;;19.79;74.48;97605.97;1701415;75;753089;-73
2023/06/14 11:34:54;;;;;;;2.90;1.60;;;;;;;19.70;71.20;97600.09;1707306;75;865416;-73
2023/06/14 11:37:26;;;;;;;1.95;1.75;;;;;;;20.32;72.25;97598.66;1700246;75;741039;-72
2023/06/14 11:39:59;;;;;;;2.55;1.95;;;;;;;20.22;70.91;97596.34;1685334;75;2765767;-71